createdAt,value
2018-05-01T00:02:26.775Z,44.98
2018-05-01T00:07:34.798Z,44.74
2018-05-01T00:10:04.944Z,44.69
2018-05-01T00:12:38.433Z,44.71
2018-05-01T00:15:06.742Z,45.36
2018-05-01T00:17:34.373Z,45.25
2018-05-01T00:25:12.996Z,45.04
2018-05-01T00:27:42.457Z,44.97
2018-05-01T00:30:16.652Z,44.84
2018-05-01T00:32:49.962Z,44.86
2018-05-01T00:35:19.517Z,44.85
2018-05-01T00:37:49.035Z,45.07
2018-05-01T00:40:18.490Z,45.22
2018-05-01T00:42:45.990Z,45.40
2018-05-01T00:45:19.454Z,45.33
2018-05-01T00:47:50.219Z,45.24
2018-05-01T00:50:20.865Z,45.14
2018-05-01T00:52:56.467Z,45.83
2018-05-01T00:55:25.737Z,46.69
2018-05-01T00:57:57.476Z,46.57
2018-05-01T01:00:26.413Z,45.92
2018-05-01T01:02:56.044Z,45.92
2018-05-01T01:05:25.308Z,46.05
2018-05-01T01:07:52.810Z,46.11
2018-05-01T01:10:23.451Z,46.58
2018-05-01T01:12:51.868Z,46.56
2018-05-01T01:15:22.226Z,46.85
2018-05-01T01:17:52.245Z,46.54
2018-05-01T01:20:19.990Z,46.58
2018-05-01T01:22:50.070Z,46.64
2018-05-01T01:25:20.009Z,46.50
2018-05-01T01:27:49.586Z,46.28
2018-05-01T01:30:21.860Z,46.30
2018-05-01T01:32:53.320Z,46.29
2018-05-01T01:35:22.008Z,46.30
2018-05-01T01:37:49.801Z,46.33
2018-05-01T01:40:21.603Z,46.42
2018-05-01T01:42:50.190Z,47.16
2018-05-01T01:45:18.819Z,47.21
2018-05-01T01:47:47.229Z,47.45
2018-05-01T01:50:16.171Z,47.56
2018-05-01T01:52:44.637Z,47.57
2018-05-01T01:55:12.966Z,47.70
2018-05-01T01:57:42.362Z,47.59
2018-05-01T02:00:14.172Z,47.60
2018-05-01T02:02:42.162Z,47.64
2018-05-01T02:05:15.485Z,47.47
2018-05-01T02:07:46.532Z,48.09
2018-05-01T02:10:17.777Z,48.01
2018-05-01T02:12:47.497Z,48.28
2018-05-01T02:15:17.051Z,48.86
2018-05-01T02:17:45.602Z,49.35
2018-05-01T02:20:14.030Z,49.51
2018-05-01T02:22:43.175Z,49.53
2018-05-01T02:25:12.106Z,49.72
2018-05-01T02:27:40.582Z,49.68
2018-05-01T02:30:09.817Z,49.91
2018-05-01T02:32:38.232Z,50.28
2018-05-01T02:35:08.660Z,50.91
2018-05-01T02:37:37.443Z,50.82
2018-05-01T02:40:05.734Z,50.73
2018-05-01T02:42:34.333Z,50.87
2018-05-01T02:45:02.134Z,51.03
2018-05-01T02:47:31.351Z,50.99
2018-05-01T02:50:01.779Z,51.75
2018-05-01T02:52:30.255Z,51.87
2018-05-01T02:55:00.813Z,51.45
2018-05-01T02:57:30.155Z,51.57
2018-05-01T03:00:00.539Z,51.43
2018-05-01T03:02:28.370Z,51.59
2018-05-01T03:04:57.351Z,52.48
2018-05-01T03:07:26.497Z,52.51
2018-05-01T03:09:55.967Z,52.90
2018-05-01T03:12:24.755Z,52.47
2018-05-01T03:14:53.898Z,52.75
2018-05-01T03:17:21.570Z,52.39
2018-05-01T03:19:51.242Z,52.04
2018-05-01T03:22:20.748Z,52.47
2018-05-01T03:24:49.453Z,52.44
2018-05-01T03:27:18.844Z,52.22
2018-05-01T03:29:47.430Z,51.82
2018-05-01T03:32:15.878Z,51.42
2018-05-01T03:34:45.260Z,51.41
2018-05-01T03:37:16.398Z,51.69
2018-05-01T03:39:44.785Z,52.66
2018-05-01T03:42:13.123Z,52.24
2018-05-01T03:44:44.083Z,53.25
2018-05-01T03:47:12.235Z,53.09
2018-05-01T03:49:40.832Z,53.68
2018-05-01T03:52:09.438Z,54.52
2018-05-01T03:54:37.949Z,54.36
2018-05-01T03:57:07.159Z,54.81
2018-05-01T03:59:35.112Z,54.95
2018-05-01T04:02:09.134Z,55.72
2018-05-01T04:04:37.812Z,54.74
2018-05-01T04:07:04.744Z,54.54
2018-05-01T04:09:33.608Z,55.10
2018-05-01T04:12:03.373Z,54.97
2018-05-01T04:14:32.901Z,55.17
2018-05-01T04:17:03.269Z,55.30
2018-05-01T04:19:30.341Z,54.25
2018-05-01T04:21:59.301Z,54.26
2018-05-01T04:24:27.784Z,54.48
2018-05-01T04:26:56.259Z,54.29
2018-05-01T04:29:24.981Z,54.07
2018-05-01T04:31:51.920Z,53.60
2018-05-01T04:34:20.726Z,53.42
2018-05-01T04:36:52.717Z,53.67
2018-05-01T04:39:21.735Z,53.67
2018-05-01T04:41:50.220Z,53.62
2018-05-01T04:44:17.303Z,53.73
2018-05-01T04:46:59.146Z,53.59
2018-05-01T04:49:27.834Z,54.13
2018-05-01T04:52:03.393Z,54.52
2018-05-01T04:54:40.191Z,56.68
2018-05-01T04:57:08.520Z,56.78
2018-05-01T04:59:36.789Z,55.35
2018-05-01T05:02:05.567Z,54.96
2018-05-01T05:04:34.951Z,54.54
2018-05-01T05:07:03.625Z,54.96
2018-05-01T05:09:32.102Z,55.84
2018-05-01T05:11:59.700Z,55.38
2018-05-01T05:14:28.204Z,56.13
2018-05-01T05:16:57.274Z,55.65
2018-05-01T05:19:30.307Z,55.53
2018-05-01T05:22:00.099Z,55.29
2018-05-01T05:24:28.467Z,54.70
2018-05-01T05:26:57.841Z,54.82
2018-05-01T05:29:27.435Z,54.95
2018-05-01T05:31:56.290Z,55.37
2018-05-01T05:34:25.149Z,56.84
2018-05-01T05:36:52.101Z,55.91
2018-05-01T05:39:19.820Z,57.29
2018-05-01T05:41:50.136Z,57.13
2018-05-01T05:44:18.223Z,56.89
2018-05-01T05:46:46.861Z,57.52
2018-05-01T05:49:15.549Z,57.24
2018-05-01T05:51:47.662Z,57.34
2018-05-01T05:54:16.641Z,56.99
2018-05-01T05:56:44.901Z,56.21
2018-05-01T05:59:13.868Z,56.56
2018-05-01T06:01:41.812Z,56.48
2018-05-01T06:04:10.137Z,56.09
2018-05-01T06:06:39.442Z,56.17
2018-05-01T06:09:07.800Z,55.90
2018-05-01T06:11:35.932Z,55.28
2018-05-01T06:14:05.730Z,55.34
2018-05-01T06:16:34.763Z,55.20
2018-05-01T06:19:04.322Z,55.53
2018-05-01T06:21:37.515Z,55.65
2018-05-01T06:24:06.464Z,55.00
2018-05-01T06:26:35.150Z,54.44
2018-05-01T06:29:03.325Z,55.04
2018-05-01T06:31:31.827Z,54.36
2018-05-01T06:33:59.864Z,54.69
2018-05-01T06:36:29.002Z,54.37
2018-05-01T06:38:58.223Z,53.98
2018-05-01T06:41:25.216Z,53.77
2018-05-01T06:43:53.756Z,53.74
2018-05-01T06:46:22.144Z,53.80
2018-05-01T06:48:52.519Z,54.37
2018-05-01T06:51:20.299Z,54.28
2018-05-01T06:53:49.449Z,54.20
2018-05-01T06:56:17.903Z,54.05
2018-05-01T06:58:46.140Z,54.28
2018-05-01T07:01:14.851Z,54.42
2018-05-01T07:03:43.525Z,54.68
2018-05-01T07:06:13.057Z,54.85
2018-05-01T07:08:41.776Z,54.67
2018-05-01T07:11:10.774Z,55.26
2018-05-01T07:13:39.470Z,54.06
2018-05-01T07:16:12.070Z,53.00
2018-05-01T07:18:40.843Z,52.92
2018-05-01T07:21:07.843Z,52.42
2018-05-01T07:23:36.400Z,53.30
2018-05-01T07:26:05.061Z,52.53
2018-05-01T07:28:32.968Z,52.15
2018-05-01T07:31:01.587Z,51.66
2018-05-01T07:33:30.228Z,51.71
2018-05-01T07:35:58.584Z,50.97
2018-05-01T07:38:26.528Z,50.96
2018-05-01T07:40:54.215Z,51.09
2018-05-01T07:43:23.098Z,51.05
2018-05-01T07:45:51.519Z,50.98
2018-05-01T07:48:18.568Z,51.06
2018-05-01T07:50:46.601Z,50.90
2018-05-01T07:53:15.430Z,50.65
2018-05-01T07:55:44.551Z,50.33
2018-05-01T07:58:13.204Z,50.58
2018-05-01T08:00:44.258Z,50.38
2018-05-01T08:03:16.675Z,50.02
2018-05-01T08:05:45.080Z,49.73
2018-05-01T08:08:13.486Z,49.88
2018-05-01T08:10:42.202Z,50.07
2018-05-01T08:13:10.699Z,50.16
2018-05-01T08:15:39.434Z,49.83
2018-05-01T08:18:09.569Z,50.40
2018-05-01T08:20:38.210Z,49.97
2018-05-01T08:23:07.857Z,50.14
2018-05-01T08:25:37.263Z,49.99
2018-05-01T08:36:23.368Z,50.69
2018-05-01T08:38:57.410Z,51.02
2018-05-01T08:41:27.264Z,50.61
2018-05-01T08:46:29.248Z,50.33
2018-05-01T08:48:58.402Z,50.04
2018-05-01T08:51:33.482Z,49.65
2018-05-01T08:54:03.145Z,49.88
2018-05-01T08:56:33.069Z,50.29
2018-05-01T08:59:02.916Z,49.03
2018-05-01T09:01:31.480Z,48.80
2018-05-01T09:06:36.004Z,49.17
2018-05-01T09:09:03.985Z,49.48
2018-05-01T09:11:32.900Z,49.57
2018-05-01T09:14:01.157Z,48.97
2018-05-01T09:16:29.051Z,48.54
2018-05-01T09:18:58.229Z,48.58
2018-05-01T09:21:26.483Z,47.89
2018-05-01T09:23:54.980Z,47.80
2018-05-01T09:26:24.449Z,48.07
2018-05-01T09:28:52.609Z,47.51
2018-05-01T09:31:20.972Z,47.28
2018-05-01T09:33:50.259Z,46.86
2018-05-01T09:36:20.955Z,47.36
2018-05-01T09:38:51.025Z,47.60
2018-05-01T09:41:21.285Z,48.24
2018-05-01T09:43:49.389Z,48.13
2018-05-01T09:46:21.522Z,48.27
2018-05-01T09:48:50.517Z,46.97
2018-05-01T09:51:18.915Z,46.64
2018-05-01T09:53:49.351Z,46.23
2018-05-01T09:56:18.603Z,46.62
2018-05-01T09:58:48.036Z,45.63
2018-05-01T10:01:18.710Z,45.56
2018-05-01T10:03:48.327Z,45.66
2018-05-01T10:06:19.664Z,45.10
2018-05-01T10:08:49.562Z,45.62
2018-05-01T10:11:19.206Z,45.60
2018-05-01T10:13:48.242Z,44.75
2018-05-01T10:16:17.289Z,45.02
2018-05-01T10:18:46.547Z,44.28
2018-05-01T10:21:19.460Z,44.32
2018-05-01T10:23:52.300Z,44.97
2018-05-01T10:26:21.958Z,43.89
2018-05-01T10:28:56.746Z,44.21
2018-05-01T10:31:26.909Z,44.10
2018-05-01T10:33:55.564Z,42.63
2018-05-01T10:36:25.601Z,42.38
2018-05-01T10:38:57.225Z,42.85
2018-05-01T10:41:25.940Z,43.12
2018-05-01T10:43:55.117Z,42.95
2018-05-01T17:54:19.727Z,38.75
2018-05-01T17:56:53.590Z,39.05
2018-05-01T17:59:21.249Z,39.04
2018-05-01T18:01:51.346Z,39.14
2018-05-01T18:04:21.184Z,38.92
2018-05-01T18:06:51.766Z,38.89
2018-05-01T18:09:24.788Z,38.77
2018-05-01T18:11:56.132Z,38.63
2018-05-01T18:14:26.267Z,38.27
2018-05-01T18:16:57.307Z,38.26
2018-05-01T18:19:27.639Z,37.96
2018-05-01T18:21:58.019Z,37.36
2018-05-01T18:24:29.150Z,37.69
2018-05-01T18:26:58.761Z,37.86
2018-05-01T18:29:28.792Z,37.95
2018-05-01T18:31:59.457Z,38.05
2018-05-01T18:34:29.877Z,38.06
2018-05-01T18:37:03.057Z,37.93
2018-05-01T18:39:33.139Z,38.01
2018-05-01T18:42:02.516Z,38.16
2018-05-01T18:44:32.933Z,38.22
2018-05-01T18:47:04.487Z,38.23
2018-05-01T18:49:34.450Z,38.47
2018-05-01T18:52:04.287Z,39.01
2018-05-01T18:54:34.650Z,38.61
2018-05-01T18:57:05.792Z,38.33
2018-05-01T18:59:35.751Z,38.40
2018-05-01T19:02:08.928Z,38.97
2018-05-01T19:04:38.415Z,38.79
2018-05-01T19:07:08.000Z,38.66
2018-05-01T19:09:37.826Z,38.56
2018-05-01T19:12:09.462Z,38.66
2018-05-01T19:14:38.853Z,38.60
2018-05-01T19:17:10.060Z,38.73
2018-05-01T19:19:41.364Z,38.55
2018-05-01T19:22:11.201Z,38.32
2018-05-01T19:24:41.310Z,38.49
2018-05-01T19:27:11.325Z,38.63
2018-05-01T19:29:41.470Z,38.72
2018-05-01T19:32:12.816Z,38.86
2018-05-01T19:34:42.431Z,38.69
2018-05-01T19:37:12.102Z,38.74
2018-05-01T19:39:41.609Z,38.69
2018-05-01T19:42:12.079Z,38.77
2018-05-01T19:44:41.994Z,38.83
2018-05-01T19:47:11.615Z,38.97
2018-05-01T19:49:41.040Z,38.93
2018-05-01T19:52:11.948Z,39.02
2018-05-01T19:54:40.915Z,39.07
2018-05-01T19:57:11.363Z,39.21
2018-05-01T19:59:45.021Z,39.14
2018-05-01T20:02:16.057Z,39.18
2018-05-01T20:04:46.169Z,39.17
2018-05-01T20:07:15.803Z,39.22
2018-05-01T20:09:44.927Z,39.31
2018-05-01T20:12:15.518Z,39.40
2018-05-01T20:14:46.361Z,39.48
2018-05-01T20:17:15.977Z,39.45
2018-05-01T20:19:45.099Z,39.23
2018-05-01T20:22:14.177Z,39.32
2018-05-01T20:24:41.743Z,39.48
2018-05-01T20:27:10.977Z,39.56
2018-05-01T20:29:40.520Z,39.60
2018-05-01T20:32:09.967Z,39.72
2018-05-01T20:34:41.408Z,39.80
2018-05-01T20:37:08.881Z,40.04
2018-05-01T20:39:38.471Z,40.18
2018-05-01T20:42:08.029Z,40.20
2018-05-01T20:44:38.642Z,40.30
2018-05-01T20:47:08.290Z,40.44
2018-05-01T20:49:38.171Z,40.56
2018-05-01T20:52:07.436Z,40.63
2018-05-01T20:54:36.809Z,40.67
2018-05-01T20:57:06.507Z,40.81
2018-05-01T20:59:36.065Z,41.02
2018-05-01T21:02:05.403Z,41.02
2018-05-01T21:04:34.732Z,41.14
2018-05-01T21:07:04.166Z,41.29
2018-05-01T21:09:33.770Z,41.98
2018-05-01T21:12:04.096Z,42.38
2018-05-01T21:14:33.346Z,42.30
2018-05-01T21:17:01.509Z,42.60
2018-05-01T21:19:30.818Z,42.97
2018-05-01T21:22:00.681Z,43.51
2018-05-01T21:24:30.698Z,43.58
2018-05-01T21:27:00.244Z,43.69
2018-05-01T21:29:27.939Z,44.19
2018-05-01T21:31:57.789Z,44.75
2018-05-01T21:34:27.586Z,44.83
2018-05-01T21:36:56.705Z,44.69
2018-05-01T21:39:26.387Z,44.86
2018-05-01T21:41:53.896Z,44.76
2018-05-01T21:44:23.359Z,44.76
2018-05-01T21:46:52.536Z,44.84
2018-05-01T21:49:21.957Z,45.26
2018-05-01T21:51:51.349Z,45.22
2018-05-01T21:54:20.975Z,45.40
2018-05-01T21:56:53.144Z,45.59
2018-05-01T21:59:28.404Z,45.85
2018-05-01T22:01:57.714Z,45.99
2018-05-01T22:04:27.662Z,46.15
2018-05-01T22:06:57.166Z,46.21
2018-05-01T22:09:26.619Z,46.37
2018-05-01T22:11:55.999Z,46.31
2018-05-01T22:14:24.858Z,46.54
2018-05-01T22:16:55.497Z,46.85
2018-05-01T22:19:25.035Z,47.12
2018-05-01T22:21:54.143Z,47.18
2018-05-01T22:24:23.937Z,47.29
2018-05-01T22:26:53.637Z,47.44
2018-05-01T22:29:22.976Z,47.47
2018-05-01T22:31:52.547Z,47.76
2018-05-01T22:34:22.001Z,47.95
2018-05-01T22:36:52.113Z,47.89
2018-05-01T22:39:21.335Z,48.12
2018-05-01T22:41:54.362Z,48.14
2018-05-01T22:44:23.451Z,48.31
2018-05-01T22:46:51.014Z,48.51
2018-05-01T22:49:22.189Z,48.27
2018-05-01T22:51:51.777Z,48.32
2018-05-01T22:54:21.628Z,48.59
2018-05-01T22:56:50.949Z,48.75
2018-05-01T22:59:18.468Z,49.02
2018-05-01T23:01:47.879Z,49.14
2018-05-01T23:04:17.308Z,49.10
2018-05-01T23:06:47.177Z,49.25
2018-05-01T23:09:16.381Z,49.30
2018-05-01T23:11:45.878Z,49.42
2018-05-01T23:14:18.814Z,49.32
2018-05-01T23:16:49.192Z,49.22
2018-05-01T23:19:18.573Z,49.06
2018-05-01T23:21:47.659Z,49.00
2018-05-01T23:24:16.747Z,48.93
2018-05-01T23:26:47.536Z,49.15
2018-05-01T23:29:17.513Z,49.24
2018-05-01T23:31:46.873Z,49.53
2018-05-01T23:34:16.580Z,49.80
2018-05-01T23:36:46.041Z,50.06
2018-05-01T23:39:16.188Z,50.25
2018-05-01T23:41:45.673Z,50.59
2018-05-01T23:44:15.449Z,50.65
2018-05-01T23:46:44.782Z,50.57
2018-05-01T23:49:14.784Z,50.37
2018-05-01T23:51:44.060Z,50.26
2018-05-01T23:54:13.468Z,50.48
2018-05-01T23:56:42.632Z,50.69
2018-05-01T23:59:12.013Z,50.87
